createdAt,value
2018-08-11T06:51:24.888Z,28.80
2018-08-11T06:53:54.896Z,28.80
2018-08-11T06:56:35.488Z,28.90
2018-08-11T06:59:04.913Z,28.90
2018-08-11T07:01:34.303Z,28.90
2018-08-11T07:04:03.679Z,28.90
2018-08-11T07:06:33.096Z,29.00
2018-08-11T07:09:02.492Z,29.00
2018-08-11T07:11:31.823Z,29.00
2018-08-11T07:14:01.206Z,29.00
2018-08-11T07:16:30.604Z,29.00
2018-08-11T07:18:59.917Z,29.10
2018-08-11T07:21:29.310Z,29.10
2018-08-11T07:23:58.644Z,29.10
2018-08-11T07:26:28.061Z,29.10
2018-08-11T07:28:57.381Z,29.10
2018-08-11T07:31:26.740Z,29.20
2018-08-11T07:33:56.135Z,29.20
2018-08-11T07:36:25.635Z,29.20
2018-08-11T07:38:54.857Z,29.30
2018-08-11T07:41:24.183Z,29.40
2018-08-11T07:43:53.592Z,29.40
2018-08-11T07:46:23.304Z,29.40
2018-08-11T07:48:52.737Z,29.50
2018-08-11T07:51:22.084Z,29.50
2018-08-11T07:53:51.747Z,29.50
2018-08-11T07:56:21.216Z,29.50
2018-08-11T07:58:50.712Z,29.60
2018-08-11T08:01:20.151Z,29.60
2018-08-11T08:03:49.634Z,29.60
2018-08-11T08:06:18.987Z,29.70
2018-08-11T08:08:48.321Z,29.60
2018-08-11T08:11:17.654Z,29.70
2018-08-11T08:13:46.963Z,29.70
2018-08-11T08:16:16.262Z,29.70
2018-08-11T08:18:45.587Z,29.70
2018-08-11T08:21:14.845Z,29.80
2018-08-11T08:23:44.243Z,29.90
2018-08-11T08:26:13.682Z,29.90
2018-08-11T08:28:43.036Z,30.00
2018-08-11T08:31:12.348Z,30.10
2018-08-11T08:33:41.821Z,30.10
2018-08-11T08:36:11.143Z,30.20
2018-08-11T08:38:40.412Z,30.20
2018-08-11T08:41:09.714Z,30.30
2018-08-11T08:43:38.932Z,30.40
2018-08-11T08:46:08.394Z,30.50
2018-08-11T08:48:37.686Z,30.50
2018-08-11T08:51:07.007Z,30.60
2018-08-11T08:53:36.242Z,30.70
2018-08-11T08:56:05.542Z,30.80
2018-08-11T08:58:34.823Z,30.90
2018-08-11T09:01:04.123Z,30.90
2018-08-11T09:03:33.391Z,31.00
2018-08-11T09:06:02.724Z,31.10
2018-08-11T09:08:32.011Z,31.10
2018-08-11T09:11:01.280Z,31.10
2018-08-11T09:13:30.576Z,31.20
2018-08-11T09:15:59.861Z,31.20
2018-08-11T09:18:29.108Z,31.40
2018-08-11T09:20:58.499Z,31.40
2018-08-11T09:23:27.926Z,31.50
2018-08-11T09:25:57.225Z,31.60
2018-08-11T09:28:26.541Z,31.70
2018-08-11T09:30:55.838Z,31.80
2018-08-11T09:33:25.180Z,31.90
2018-08-11T09:35:54.424Z,31.90
2018-08-11T09:38:23.718Z,32.00
2018-08-11T09:40:53.010Z,32.10
2018-08-11T09:43:22.305Z,32.10
2018-08-11T09:45:51.680Z,32.20
2018-08-11T09:48:20.954Z,32.30
2018-08-11T09:50:50.342Z,32.50
2018-08-11T09:53:19.588Z,32.50
2018-08-11T09:55:48.868Z,32.60
2018-08-11T09:58:18.255Z,32.60
2018-08-11T10:00:49.330Z,32.70
2018-08-11T10:03:18.627Z,32.70
2018-08-11T10:05:47.883Z,32.70
2018-08-11T10:08:17.167Z,32.80
2018-08-11T10:10:46.490Z,32.90
2018-08-11T10:13:15.816Z,33.00
2018-08-11T10:15:45.300Z,33.20
2018-08-11T10:18:14.813Z,33.30
2018-08-11T10:20:44.080Z,33.40
2018-08-11T10:23:13.508Z,33.40
2018-08-11T10:25:42.918Z,33.60
2018-08-11T10:28:12.259Z,33.70
2018-08-11T10:30:41.559Z,33.80
2018-08-11T10:33:10.815Z,33.90
2018-08-11T10:35:40.137Z,34.00
2018-08-11T10:38:09.391Z,34.10
2018-08-11T10:40:38.706Z,34.20
2018-08-11T10:43:07.938Z,34.30
2018-08-11T10:45:37.240Z,34.40
2018-08-11T10:48:06.543Z,34.40
2018-08-11T10:50:36.210Z,34.50
2018-08-11T10:53:05.642Z,34.60
2018-08-11T10:55:35.095Z,34.60
2018-08-11T10:58:04.587Z,34.50
2018-08-11T11:00:34.454Z,34.50
2018-08-11T11:03:03.785Z,34.60
2018-08-11T11:05:33.663Z,34.80
2018-08-11T11:08:03.060Z,34.90
2018-08-11T11:10:32.434Z,34.90
2018-08-11T11:13:01.709Z,34.90
2018-08-11T11:15:30.989Z,35.00
2018-08-11T11:18:00.256Z,35.00
2018-08-11T11:20:29.599Z,35.10
2018-08-11T11:22:58.857Z,35.00
2018-08-11T11:25:28.108Z,35.00
2018-08-11T11:27:57.346Z,35.00
2018-08-11T11:30:26.626Z,35.00
2018-08-11T11:32:55.962Z,35.20
2018-08-11T11:35:25.311Z,35.20
2018-08-11T11:37:54.634Z,35.30
2018-08-11T11:40:23.902Z,35.40
2018-08-11T11:42:53.194Z,35.40
2018-08-11T11:45:22.537Z,35.30
2018-08-11T11:47:55.350Z,35.40
2018-08-11T11:50:24.701Z,35.30
2018-08-11T11:52:53.990Z,35.20
2018-08-11T11:55:23.517Z,35.10
2018-08-11T11:57:52.818Z,35.10
2018-08-11T12:00:22.167Z,35.10
2018-08-11T12:02:51.441Z,35.10
2018-08-11T12:05:20.676Z,35.00
2018-08-11T12:07:49.932Z,35.00
2018-08-11T12:10:19.245Z,35.00
2018-08-11T12:12:48.642Z,35.10
2018-08-11T12:15:17.861Z,35.10
2018-08-11T12:17:47.142Z,35.10
2018-08-11T12:20:16.440Z,35.10
2018-08-11T12:22:45.791Z,35.00
2018-08-11T12:25:15.169Z,35.00
2018-08-11T12:27:44.464Z,34.90
2018-08-11T12:30:13.746Z,34.90
2018-08-11T12:32:43.054Z,34.90
2018-08-11T12:35:12.342Z,34.90
2018-08-11T12:37:41.711Z,34.90
2018-08-11T12:40:10.976Z,34.90
2018-08-11T12:42:40.240Z,34.80
2018-08-11T12:45:09.813Z,34.80
2018-08-11T12:47:39.078Z,34.70
2018-08-11T12:50:08.366Z,34.70
2018-08-11T12:52:37.630Z,34.60
2018-08-11T12:55:07.131Z,34.70
2018-08-11T12:57:36.491Z,34.60
2018-08-11T13:00:07.485Z,34.50
2018-08-11T13:02:37.072Z,34.60
2018-08-11T13:05:06.637Z,34.50
2018-08-11T13:07:35.968Z,34.50
2018-08-11T13:10:06.164Z,34.50
2018-08-11T13:12:35.434Z,34.40
2018-08-11T13:15:05.493Z,34.40
2018-08-11T13:17:34.839Z,34.50
2018-08-11T13:20:04.231Z,34.50
2018-08-11T13:22:33.526Z,34.50
2018-08-11T13:25:02.895Z,34.40
2018-08-11T13:27:32.207Z,34.40
2018-08-11T13:30:01.557Z,34.50
2018-08-11T13:32:30.951Z,34.40
2018-08-11T13:35:00.298Z,34.40
2018-08-11T13:37:29.647Z,34.30
2018-08-11T13:39:58.936Z,34.30
2018-08-11T13:42:28.186Z,34.30
2018-08-11T13:44:57.453Z,34.30
2018-08-11T13:47:26.804Z,34.20
2018-08-11T13:49:56.067Z,34.20
2018-08-11T13:52:25.366Z,34.20
2018-08-11T13:54:54.664Z,34.10
2018-08-11T13:57:25.546Z,34.10
2018-08-11T13:59:54.816Z,34.10
2018-08-11T14:02:24.232Z,34.20
2018-08-11T14:04:53.589Z,34.10
2018-08-11T14:07:22.966Z,34.20
2018-08-11T14:09:52.306Z,34.10
2018-08-11T14:12:21.677Z,34.10
2018-08-11T14:14:51.114Z,34.00
2018-08-11T14:17:20.650Z,34.00
2018-08-11T14:19:50.048Z,34.00
2018-08-11T14:22:19.338Z,33.90
2018-08-11T14:24:48.678Z,34.00
2018-08-11T14:27:18.037Z,34.00
2018-08-11T14:29:47.399Z,33.90
2018-08-11T14:32:16.726Z,33.80
2018-08-11T14:34:46.115Z,33.90
2018-08-11T14:37:15.491Z,33.90
2018-08-11T14:39:44.825Z,33.80
2018-08-11T14:42:14.170Z,33.80
2018-08-11T14:44:43.437Z,33.80
2018-08-11T14:47:12.737Z,33.80
2018-08-11T14:49:42.027Z,33.80
2018-08-11T14:52:11.248Z,33.80
2018-08-11T14:54:40.618Z,33.80
2018-08-11T14:57:09.993Z,33.80
2018-08-11T14:59:39.446Z,33.70
2018-08-11T15:02:08.743Z,33.70
2018-08-11T15:04:37.999Z,33.70
2018-08-11T15:07:07.372Z,33.70
2018-08-11T15:09:36.591Z,33.60
2018-08-11T15:12:05.821Z,33.60
2018-08-11T15:14:35.118Z,33.50
2018-08-11T15:17:04.486Z,33.50
2018-08-11T15:19:33.812Z,33.50
2018-08-11T15:22:03.126Z,33.40
2018-08-11T15:24:32.483Z,33.40
2018-08-11T15:27:01.780Z,33.40
2018-08-11T15:29:31.112Z,33.40
2018-08-11T15:32:00.399Z,33.30
2018-08-11T15:34:29.722Z,33.30
2018-08-11T15:36:59.109Z,33.20
2018-08-11T15:39:28.378Z,33.20
2018-08-11T15:41:57.694Z,33.20
2018-08-11T15:44:27.044Z,33.20
2018-08-11T15:46:56.362Z,33.30
2018-08-11T15:49:25.641Z,33.20
2018-08-11T15:51:55.042Z,33.20
2018-08-11T15:54:24.476Z,33.20
2018-08-11T15:56:53.708Z,33.10
2018-08-11T15:59:22.932Z,33.10
2018-08-11T16:01:52.414Z,33.10
2018-08-11T16:04:21.807Z,33.20
2018-08-11T16:06:51.141Z,33.10
2018-08-11T16:09:20.517Z,33.20
2018-08-11T16:11:49.951Z,33.20
2018-08-11T16:14:19.238Z,33.10
2018-08-11T16:16:48.604Z,33.10
2018-08-11T16:19:17.869Z,33.00
2018-08-11T16:21:47.109Z,33.00
2018-08-11T16:24:16.430Z,33.10
2018-08-11T16:26:45.702Z,33.00
2018-08-11T16:29:15.041Z,33.00
2018-08-11T16:31:44.318Z,33.00
2018-08-11T16:34:13.624Z,33.00
2018-08-11T16:36:42.936Z,32.90
2018-08-11T16:39:12.287Z,32.90
2018-08-11T16:41:41.557Z,32.80
2018-08-11T16:44:10.861Z,32.90
2018-08-11T16:46:40.188Z,32.80
2018-08-11T16:49:09.538Z,32.80
2018-08-11T16:51:38.893Z,32.70
2018-08-11T16:54:08.212Z,32.70
2018-08-11T16:56:37.486Z,32.70
2018-08-11T16:59:06.847Z,32.70
2018-08-11T17:01:36.146Z,32.60
2018-08-11T17:04:05.476Z,32.60
2018-08-11T17:06:34.899Z,32.50
2018-08-11T17:09:06.338Z,32.50
2018-08-11T17:11:35.620Z,32.50
2018-08-11T17:14:05.071Z,32.40
2018-08-11T17:16:35.467Z,32.40
2018-08-11T17:19:04.771Z,32.40
2018-08-11T17:21:34.060Z,32.30
2018-08-11T17:24:03.329Z,32.40
2018-08-11T17:26:32.635Z,32.30
2018-08-11T17:29:01.866Z,32.30
2018-08-11T17:31:31.278Z,32.30
2018-08-11T17:34:00.747Z,32.30
2018-08-11T17:36:30.043Z,32.30
2018-08-11T17:38:59.365Z,32.30
2018-08-11T17:41:28.747Z,32.30
2018-08-11T17:43:58.020Z,32.30
2018-08-11T17:46:27.342Z,32.30
2018-08-11T17:48:56.613Z,32.30
2018-08-11T17:51:25.927Z,32.20
2018-08-11T17:53:55.246Z,32.20
2018-08-11T17:56:24.620Z,32.20
2018-08-11T17:58:54.284Z,32.10
2018-08-11T18:01:23.709Z,32.00
2018-08-11T18:03:53.040Z,32.00
2018-08-11T18:06:22.314Z,32.10
2018-08-11T18:08:51.854Z,32.10
2018-08-11T18:11:21.358Z,32.10
2018-08-11T18:13:50.768Z,32.10
2018-08-11T18:16:20.076Z,32.10
2018-08-11T18:18:49.415Z,32.20
2018-08-11T18:21:18.729Z,32.10
2018-08-11T18:23:47.942Z,32.10
2018-08-11T18:26:17.251Z,32.10
2018-08-11T18:28:46.542Z,32.00
2018-08-11T18:31:15.918Z,32.00
2018-08-11T18:33:45.229Z,31.90
2018-08-11T18:36:14.623Z,31.90
2018-08-11T18:38:43.886Z,31.90
2018-08-11T18:41:13.224Z,31.80
2018-08-11T18:43:42.659Z,31.70
2018-08-11T18:46:11.980Z,31.80
2018-08-11T18:48:41.271Z,31.70
2018-08-11T18:51:10.730Z,31.70
2018-08-11T18:53:40.009Z,31.70
2018-08-11T18:56:09.394Z,31.70
2018-08-11T18:58:38.761Z,31.60
2018-08-11T19:01:08.176Z,31.60
2018-08-11T19:03:37.483Z,31.50
2018-08-11T19:06:06.889Z,31.50
2018-08-11T19:08:36.183Z,31.50
2018-08-11T19:11:05.626Z,31.50
2018-08-11T19:13:34.988Z,31.40
2018-08-11T19:16:04.368Z,31.30
2018-08-11T19:18:33.730Z,31.30
2018-08-11T19:21:03.068Z,31.30
2018-08-11T19:23:32.387Z,31.20
2018-08-11T19:26:01.848Z,31.30
2018-08-11T19:28:31.128Z,31.30
2018-08-11T19:31:00.440Z,31.30
2018-08-11T19:33:29.933Z,31.30
2018-08-11T19:35:59.252Z,31.30
2018-08-11T19:38:28.659Z,31.40
2018-08-11T19:40:58.069Z,31.40
2018-08-11T19:43:27.420Z,31.40
2018-08-11T19:45:56.818Z,31.40
2018-08-11T19:48:26.139Z,31.30
2018-08-11T19:50:55.411Z,31.10
2018-08-11T19:53:24.798Z,30.90
2018-08-11T19:55:54.135Z,30.70
2018-08-11T19:58:23.503Z,30.60
2018-08-11T20:00:52.850Z,30.60
2018-08-11T20:03:22.153Z,30.50
2018-08-11T20:05:51.520Z,30.40
2018-08-11T20:08:20.833Z,30.40
2018-08-11T20:10:50.285Z,30.50
2018-08-11T20:13:19.615Z,30.50
2018-08-11T20:15:48.952Z,30.40
2018-08-11T20:18:18.293Z,30.50
2018-08-11T20:20:47.635Z,30.60
2018-08-11T20:23:16.900Z,30.50
2018-08-11T20:25:46.326Z,30.40
2018-08-11T20:28:15.625Z,30.40
2018-08-11T20:30:44.938Z,30.40
2018-08-11T20:33:14.219Z,30.40
2018-08-11T20:35:43.467Z,30.40
2018-08-11T20:38:12.905Z,30.40
2018-08-11T20:40:42.256Z,30.40
2018-08-11T20:43:11.531Z,30.40
2018-08-11T20:45:40.822Z,30.50
2018-08-11T20:48:10.099Z,30.50
2018-08-11T20:50:39.448Z,30.50
2018-08-11T20:53:08.796Z,30.60
2018-08-11T20:55:38.186Z,30.60
2018-08-11T20:58:07.481Z,30.70
2018-08-11T21:00:36.819Z,30.70
2018-08-11T21:03:09.151Z,30.70
2018-08-11T21:05:38.449Z,30.70
2018-08-11T21:08:08.230Z,30.70
2018-08-11T21:10:37.612Z,30.70
2018-08-11T21:13:07.275Z,30.70
2018-08-11T21:15:36.619Z,30.70
2018-08-11T21:18:05.885Z,30.80
2018-08-11T21:20:35.207Z,30.70
2018-08-11T21:23:04.515Z,30.70
2018-08-11T21:25:33.824Z,30.70
2018-08-11T21:28:03.107Z,30.70
2018-08-11T21:30:32.425Z,30.70
2018-08-11T21:33:01.759Z,30.70
